sensor_id;sensor_type;location;lat;lon;timestamp;P1;durP1;ratioP1;P2;durP2;ratioP2
9392;SDS011;4736;52.508;13.422;2022-08-19T00:02:28;12.77;;;12.07;;
9392;SDS011;4736;52.508;13.422;2022-08-19T00:05:40;13.90;;;12.80;;
9392;SDS011;4736;52.508;13.422;2022-08-19T00:08:44;13.33;;;12.33;;
9392;SDS011;4736;52.508;13.422;2022-08-19T00:11:47;13.77;;;12.67;;
9392;SDS011;4736;52.508;13.422;2022-08-19T00:14:52;14.47;;;13.47;;
9392;SDS011;4736;52.508;13.422;2022-08-19T00:17:55;15.73;;;14.23;;
9392;SDS011;4736;52.508;13.422;2022-08-19T00:20:58;15.00;;;13.90;;
9392;SDS011;4736;52.508;13.422;2022-08-19T00:24:01;14.90;;;13.60;;
9392;SDS011;4736;52.508;13.422;2022-08-19T00:27:05;14.23;;;13.17;;
9392;SDS011;4736;52.508;13.422;2022-08-19T00:30:28;14.47;;;13.47;;
9392;SDS011;4736;52.508;13.422;2022-08-19T00:33:31;15.37;;;14.17;;
9392;SDS011;4736;52.508;13.422;2022-08-19T00:36:35;15.13;;;14.00;;
9392;SDS011;4736;52.508;13.422;2022-08-19T00:39:38;15.23;;;14.20;;
9392;SDS011;4736;52.508;13.422;2022-08-19T00:42:42;15.50;;;14.27;;
9392;SDS011;4736;52.508;13.422;2022-08-19T00:45:47;15.93;;;14.67;;
9392;SDS011;4736;52.508;13.422;2022-08-19T00:48:51;15.83;;;14.70;;
9392;SDS011;4736;52.508;13.422;2022-08-19T00:51:55;17.17;;;15.73;;
9392;SDS011;4736;52.508;13.422;2022-08-19T00:55:03;17.60;;;15.83;;
9392;SDS011;4736;52.508;13.422;2022-08-19T00:58:11;17.40;;;15.70;;
9392;SDS011;4736;52.508;13.422;2022-08-19T01:01:19;17.63;;;16.07;;
9392;SDS011;4736;52.508;13.422;2022-08-19T01:04:22;17.13;;;15.73;;
9392;SDS011;4736;52.508;13.422;2022-08-19T01:07:25;17.10;;;15.70;;
9392;SDS011;4736;52.508;13.422;2022-08-19T01:10:36;18.13;;;16.50;;
9392;SDS011;4736;52.508;13.422;2022-08-19T01:13:42;16.37;;;15.27;;
9392;SDS011;4736;52.508;13.422;2022-08-19T01:16:51;16.27;;;14.97;;
9392;SDS011;4736;52.508;13.422;2022-08-19T01:19:58;16.67;;;15.33;;
9392;SDS011;4736;52.508;13.422;2022-08-19T01:23:02;16.67;;;15.37;;
9392;SDS011;4736;52.508;13.422;2022-08-19T01:26:06;16.23;;;15.10;;
9392;SDS011;4736;52.508;13.422;2022-08-19T01:29:10;16.80;;;15.43;;
9392;SDS011;4736;52.508;13.422;2022-08-19T01:32:15;17.00;;;15.83;;
9392;SDS011;4736;52.508;13.422;2022-08-19T01:35:34;16.60;;;15.37;;
9392;SDS011;4736;52.508;13.422;2022-08-19T01:38:39;17.13;;;15.83;;
9392;SDS011;4736;52.508;13.422;2022-08-19T01:41:44;18.00;;;16.60;;
9392;SDS011;4736;52.508;13.422;2022-08-19T01:44:47;18.83;;;17.13;;
9392;SDS011;4736;52.508;13.422;2022-08-19T01:47:51;16.90;;;15.63;;
9392;SDS011;4736;52.508;13.422;2022-08-19T01:51:02;19.90;;;18.10;;
9392;SDS011;4736;52.508;13.422;2022-08-19T01:54:07;18.80;;;17.30;;
9392;SDS011;4736;52.508;13.422;2022-08-19T01:57:11;20.70;;;16.70;;
9392;SDS011;4736;52.508;13.422;2022-08-19T02:00:17;18.63;;;16.93;;
9392;SDS011;4736;52.508;13.422;2022-08-19T02:03:23;17.57;;;16.13;;
9392;SDS011;4736;52.508;13.422;2022-08-19T02:06:27;18.70;;;17.03;;
9392;SDS011;4736;52.508;13.422;2022-08-19T02:09:35;17.47;;;15.80;;
9392;SDS011;4736;52.508;13.422;2022-08-19T02:12:38;16.33;;;15.10;;
9392;SDS011;4736;52.508;13.422;2022-08-19T02:15:52;17.37;;;15.70;;
9392;SDS011;4736;52.508;13.422;2022-08-19T02:18:55;17.13;;;15.70;;
9392;SDS011;4736;52.508;13.422;2022-08-19T02:21:59;16.77;;;15.47;;
9392;SDS011;4736;52.508;13.422;2022-08-19T02:25:04;16.03;;;14.77;;
9392;SDS011;4736;52.508;13.422;2022-08-19T02:28:07;15.60;;;14.30;;
9392;SDS011;4736;52.508;13.422;2022-08-19T02:31:10;17.67;;;16.17;;
9392;SDS011;4736;52.508;13.422;2022-08-19T02:34:14;17.83;;;16.20;;
9392;SDS011;4736;52.508;13.422;2022-08-19T02:37:17;18.33;;;16.83;;
9392;SDS011;4736;52.508;13.422;2022-08-19T02:40:39;17.20;;;15.70;;
9392;SDS011;4736;52.508;13.422;2022-08-19T02:43:42;16.53;;;15.37;;
9392;SDS011;4736;52.508;13.422;2022-08-19T02:47:05;17.00;;;15.70;;
9392;SDS011;4736;52.508;13.422;2022-08-19T02:50:08;17.13;;;15.73;;
9392;SDS011;4736;52.508;13.422;2022-08-19T02:53:12;17.10;;;15.90;;
9392;SDS011;4736;52.508;13.422;2022-08-19T02:56:16;16.93;;;15.53;;
9392;SDS011;4736;52.508;13.422;2022-08-19T02:59:19;18.27;;;16.77;;
9392;SDS011;4736;52.508;13.422;2022-08-19T03:02:23;17.03;;;15.73;;
9392;SDS011;4736;52.508;13.422;2022-08-19T03:05:26;18.67;;;17.17;;
9392;SDS011;4736;52.508;13.422;2022-08-19T03:08:49;18.60;;;17.00;;
9392;SDS011;4736;52.508;13.422;2022-08-19T03:11:53;17.83;;;16.43;;
9392;SDS011;4736;52.508;13.422;2022-08-19T03:14:58;18.70;;;17.30;;
9392;SDS011;4736;52.508;13.422;2022-08-19T03:18:01;17.23;;;15.63;;
9392;SDS011;4736;52.508;13.422;2022-08-19T03:21:05;16.47;;;15.07;;
9392;SDS011;4736;52.508;13.422;2022-08-19T03:24:13;17.37;;;15.90;;
9392;SDS011;4736;52.508;13.422;2022-08-19T03:27:18;16.43;;;15.07;;
9392;SDS011;4736;52.508;13.422;2022-08-19T03:30:21;16.60;;;15.13;;
9392;SDS011;4736;52.508;13.422;2022-08-19T03:33:25;16.50;;;15.20;;
9392;SDS011;4736;52.508;13.422;2022-08-19T03:36:29;16.47;;;15.27;;
9392;SDS011;4736;52.508;13.422;2022-08-19T03:39:37;17.00;;;15.63;;
9392;SDS011;4736;52.508;13.422;2022-08-19T03:42:42;18.43;;;16.87;;
9392;SDS011;4736;52.508;13.422;2022-08-19T03:46:01;17.60;;;16.23;;
9392;SDS011;4736;52.508;13.422;2022-08-19T03:49:05;17.80;;;16.40;;
9392;SDS011;4736;52.508;13.422;2022-08-19T03:52:09;16.77;;;15.43;;
9392;SDS011;4736;52.508;13.422;2022-08-19T03:55:14;17.40;;;16.10;;
9392;SDS011;4736;52.508;13.422;2022-08-19T03:58:27;17.73;;;16.37;;
9392;SDS011;4736;52.508;13.422;2022-08-19T04:01:31;18.17;;;16.77;;
9392;SDS011;4736;52.508;13.422;2022-08-19T04:04:36;17.77;;;16.30;;
9392;SDS011;4736;52.508;13.422;2022-08-19T04:07:40;18.13;;;16.73;;
9392;SDS011;4736;52.508;13.422;2022-08-19T04:10:43;17.27;;;16.03;;
9392;SDS011;4736;52.508;13.422;2022-08-19T04:13:48;17.57;;;16.27;;
9392;SDS011;4736;52.508;13.422;2022-08-19T04:16:52;17.63;;;16.07;;
9392;SDS011;4736;52.508;13.422;2022-08-19T04:19:55;17.13;;;15.83;;
9392;SDS011;4736;52.508;13.422;2022-08-19T04:23:00;17.87;;;16.37;;
9392;SDS011;4736;52.508;13.422;2022-08-19T04:26:03;17.87;;;16.33;;
9392;SDS011;4736;52.508;13.422;2022-08-19T04:29:11;17.43;;;15.93;;
9392;SDS011;4736;52.508;13.422;2022-08-19T04:32:15;18.17;;;16.60;;
9392;SDS011;4736;52.508;13.422;2022-08-19T04:35:18;17.87;;;16.47;;
9392;SDS011;4736;52.508;13.422;2022-08-19T04:38:25;17.37;;;16.07;;
9392;SDS011;4736;52.508;13.422;2022-08-19T04:41:28;18.03;;;16.63;;
9392;SDS011;4736;52.508;13.422;2022-08-19T04:44:57;17.57;;;15.97;;
9392;SDS011;4736;52.508;13.422;2022-08-19T04:48:01;17.33;;;15.93;;
9392;SDS011;4736;52.508;13.422;2022-08-19T04:51:25;17.63;;;16.20;;
9392;SDS011;4736;52.508;13.422;2022-08-19T04:54:28;18.00;;;16.63;;
9392;SDS011;4736;52.508;13.422;2022-08-19T04:57:38;17.33;;;16.13;;
9392;SDS011;4736;52.508;13.422;2022-08-19T05:00:43;18.10;;;16.70;;
9392;SDS011;4736;52.508;13.422;2022-08-19T05:03:45;16.53;;;15.33;;
9392;SDS011;4736;52.508;13.422;2022-08-19T05:06:49;17.20;;;15.90;;
9392;SDS011;4736;52.508;13.422;2022-08-19T05:09:59;18.33;;;17.03;;
9392;SDS011;4736;52.508;13.422;2022-08-19T05:13:02;17.23;;;15.93;;
9392;SDS011;4736;52.508;13.422;2022-08-19T05:16:07;16.73;;;15.43;;
9392;SDS011;4736;52.508;13.422;2022-08-19T05:19:10;17.17;;;15.97;;
9392;SDS011;4736;52.508;13.422;2022-08-19T05:22:33;17.00;;;15.40;;
9392;SDS011;4736;52.508;13.422;2022-08-19T05:25:39;16.90;;;15.50;;
9392;SDS011;4736;52.508;13.422;2022-08-19T05:28:44;16.70;;;15.43;;
9392;SDS011;4736;52.508;13.422;2022-08-19T05:31:49;15.67;;;14.67;;
9392;SDS011;4736;52.508;13.422;2022-08-19T05:34:53;16.70;;;15.50;;
9392;SDS011;4736;52.508;13.422;2022-08-19T05:38:00;16.13;;;14.70;;
9392;SDS011;4736;52.508;13.422;2022-08-19T05:41:06;16.83;;;15.53;;
9392;SDS011;4736;52.508;13.422;2022-08-19T05:44:10;16.93;;;15.43;;
9392;SDS011;4736;52.508;13.422;2022-08-19T05:47:15;17.50;;;15.63;;
9392;SDS011;4736;52.508;13.422;2022-08-19T05:50:20;16.43;;;15.13;;
9392;SDS011;4736;52.508;13.422;2022-08-19T05:53:23;20.90;;;16.10;;
9392;SDS011;4736;52.508;13.422;2022-08-19T05:56:26;20.43;;;15.77;;
9392;SDS011;4736;52.508;13.422;2022-08-19T05:59:31;16.07;;;14.60;;
9392;SDS011;4736;52.508;13.422;2022-08-19T06:02:40;17.00;;;15.70;;
9392;SDS011;4736;52.508;13.422;2022-08-19T06:05:43;16.40;;;15.07;;
9392;SDS011;4736;52.508;13.422;2022-08-19T06:08:52;16.77;;;15.47;;
9392;SDS011;4736;52.508;13.422;2022-08-19T06:11:56;17.10;;;15.90;;
9392;SDS011;4736;52.508;13.422;2022-08-19T06:15:02;16.07;;;14.83;;
9392;SDS011;4736;52.508;13.422;2022-08-19T06:18:09;16.50;;;15.23;;
9392;SDS011;4736;52.508;13.422;2022-08-19T06:21:12;17.23;;;15.73;;
9392;SDS011;4736;52.508;13.422;2022-08-19T06:24:16;17.10;;;15.90;;
9392;SDS011;4736;52.508;13.422;2022-08-19T06:27:21;15.83;;;14.63;;
9392;SDS011;4736;52.508;13.422;2022-08-19T06:30:25;17.43;;;15.93;;
9392;SDS011;4736;52.508;13.422;2022-08-19T06:33:32;17.67;;;16.27;;
9392;SDS011;4736;52.508;13.422;2022-08-19T06:36:36;18.60;;;17.20;;
9392;SDS011;4736;52.508;13.422;2022-08-19T06:39:42;17.73;;;16.13;;
9392;SDS011;4736;52.508;13.422;2022-08-19T06:42:46;18.87;;;17.23;;
9392;SDS011;4736;52.508;13.422;2022-08-19T06:45:56;16.67;;;15.23;;
9392;SDS011;4736;52.508;13.422;2022-08-19T06:49:03;18.00;;;16.87;;
9392;SDS011;4736;52.508;13.422;2022-08-19T06:52:07;18.60;;;17.20;;
9392;SDS011;4736;52.508;13.422;2022-08-19T06:55:14;18.00;;;16.60;;
9392;SDS011;4736;52.508;13.422;2022-08-19T06:58:19;17.07;;;15.70;;
9392;SDS011;4736;52.508;13.422;2022-08-19T07:01:22;18.03;;;16.63;;
9392;SDS011;4736;52.508;13.422;2022-08-19T07:04:27;17.20;;;15.77;;
9392;SDS011;4736;52.508;13.422;2022-08-19T07:07:33;16.97;;;15.77;;
9392;SDS011;4736;52.508;13.422;2022-08-19T07:10:36;18.97;;;17.57;;
9392;SDS011;4736;52.508;13.422;2022-08-19T07:13:43;18.03;;;16.73;;
9392;SDS011;4736;52.508;13.422;2022-08-19T07:16:47;19.23;;;17.53;;
9392;SDS011;4736;52.508;13.422;2022-08-19T07:19:53;18.33;;;16.87;;
9392;SDS011;4736;52.508;13.422;2022-08-19T07:22:57;18.00;;;16.63;;
9392;SDS011;4736;52.508;13.422;2022-08-19T07:26:03;19.23;;;17.67;;
9392;SDS011;4736;52.508;13.422;2022-08-19T07:29:09;18.90;;;17.00;;
9392;SDS011;4736;52.508;13.422;2022-08-19T07:32:13;18.83;;;17.00;;
9392;SDS011;4736;52.508;13.422;2022-08-19T07:35:18;19.40;;;17.90;;
9392;SDS011;4736;52.508;13.422;2022-08-19T07:38:21;19.80;;;18.27;;
9392;SDS011;4736;52.508;13.422;2022-08-19T07:41:25;18.60;;;17.10;;
9392;SDS011;4736;52.508;13.422;2022-08-19T07:44:32;17.80;;;16.50;;
9392;SDS011;4736;52.508;13.422;2022-08-19T07:47:36;19.90;;;18.27;;
9392;SDS011;4736;52.508;13.422;2022-08-19T07:50:53;18.27;;;16.67;;
9392;SDS011;4736;52.508;13.422;2022-08-19T07:53:56;18.80;;;17.20;;
9392;SDS011;4736;52.508;13.422;2022-08-19T07:56:59;18.90;;;17.10;;
9392;SDS011;4736;52.508;13.422;2022-08-19T08:00:03;20.00;;;18.37;;
9392;SDS011;4736;52.508;13.422;2022-08-19T08:03:09;20.17;;;18.57;;
9392;SDS011;4736;52.508;13.422;2022-08-19T08:06:18;19.00;;;17.70;;
9392;SDS011;4736;52.508;13.422;2022-08-19T08:09:39;22.80;;;20.93;;
9392;SDS011;4736;52.508;13.422;2022-08-19T08:12:54;20.13;;;18.53;;
9392;SDS011;4736;52.508;13.422;2022-08-19T08:16:10;19.80;;;18.30;;
9392;SDS011;4736;52.508;13.422;2022-08-19T08:19:14;20.70;;;19.10;;
9392;SDS011;4736;52.508;13.422;2022-08-19T08:22:27;21.97;;;20.17;;
9392;SDS011;4736;52.508;13.422;2022-08-19T08:25:48;22.67;;;20.70;;
9392;SDS011;4736;52.508;13.422;2022-08-19T08:28:51;24.33;;;22.27;;
9392;SDS011;4736;52.508;13.422;2022-08-19T08:31:54;20.50;;;18.73;;
9392;SDS011;4736;52.508;13.422;2022-08-19T08:35:02;21.87;;;19.90;;
9392;SDS011;4736;52.508;13.422;2022-08-19T08:38:11;22.40;;;20.60;;
9392;SDS011;4736;52.508;13.422;2022-08-19T08:41:16;21.07;;;19.43;;
9392;SDS011;4736;52.508;13.422;2022-08-19T08:44:27;24.07;;;22.07;;
9392;SDS011;4736;52.508;13.422;2022-08-19T08:47:43;23.43;;;21.43;;
9392;SDS011;4736;52.508;13.422;2022-08-19T08:50:52;23.47;;;21.43;;
9392;SDS011;4736;52.508;13.422;2022-08-19T08:53:59;24.03;;;21.83;;
9392;SDS011;4736;52.508;13.422;2022-08-19T08:57:07;23.43;;;21.50;;
9392;SDS011;4736;52.508;13.422;2022-08-19T09:00:15;23.60;;;21.57;;
9392;SDS011;4736;52.508;13.422;2022-08-19T09:03:22;22.77;;;21.07;;
9392;SDS011;4736;52.508;13.422;2022-08-19T09:06:34;22.60;;;20.90;;
9392;SDS011;4736;52.508;13.422;2022-08-19T09:09:43;25.93;;;23.53;;
9392;SDS011;4736;52.508;13.422;2022-08-19T09:12:52;23.87;;;22.07;;
9392;SDS011;4736;52.508;13.422;2022-08-19T09:16:03;25.03;;;22.90;;
9392;SDS011;4736;52.508;13.422;2022-08-19T09:19:09;24.00;;;22.23;;
9392;SDS011;4736;52.508;13.422;2022-08-19T09:22:18;23.17;;;21.33;;
9392;SDS011;4736;52.508;13.422;2022-08-19T09:25:28;25.67;;;22.97;;
9392;SDS011;4736;52.508;13.422;2022-08-19T09:28:33;24.60;;;22.47;;
9392;SDS011;4736;52.508;13.422;2022-08-19T09:31:39;22.30;;;20.70;;
9392;SDS011;4736;52.508;13.422;2022-08-19T09:34:42;23.57;;;21.53;;
9392;SDS011;4736;52.508;13.422;2022-08-19T09:37:54;22.80;;;20.70;;
9392;SDS011;4736;52.508;13.422;2022-08-19T09:41:05;21.57;;;19.87;;
9392;SDS011;4736;52.508;13.422;2022-08-19T09:44:08;21.17;;;19.47;;
9392;SDS011;4736;52.508;13.422;2022-08-19T09:47:13;21.73;;;19.83;;
9392;SDS011;4736;52.508;13.422;2022-08-19T09:50:20;21.73;;;19.73;;
9392;SDS011;4736;52.508;13.422;2022-08-19T09:53:24;22.10;;;20.10;;
9392;SDS011;4736;52.508;13.422;2022-08-19T09:56:33;19.53;;;18.07;;
9392;SDS011;4736;52.508;13.422;2022-08-19T09:59:40;20.70;;;19.00;;
9392;SDS011;4736;52.508;13.422;2022-08-19T10:02:44;20.57;;;19.13;;
9392;SDS011;4736;52.508;13.422;2022-08-19T10:05:47;21.87;;;19.83;;
9392;SDS011;4736;52.508;13.422;2022-08-19T10:08:55;20.70;;;19.27;;
9392;SDS011;4736;52.508;13.422;2022-08-19T10:12:00;19.57;;;18.20;;
9392;SDS011;4736;52.508;13.422;2022-08-19T10:15:07;21.00;;;19.40;;
9392;SDS011;4736;52.508;13.422;2022-08-19T10:18:10;22.27;;;20.30;;
9392;SDS011;4736;52.508;13.422;2022-08-19T10:21:14;20.97;;;19.40;;
9392;SDS011;4736;52.508;13.422;2022-08-19T10:24:19;23.20;;;21.30;;
9392;SDS011;4736;52.508;13.422;2022-08-19T10:27:34;21.87;;;20.00;;
9392;SDS011;4736;52.508;13.422;2022-08-19T10:30:41;23.27;;;21.17;;
9392;SDS011;4736;52.508;13.422;2022-08-19T10:33:43;20.57;;;19.07;;
9392;SDS011;4736;52.508;13.422;2022-08-19T10:36:54;22.17;;;20.23;;
9392;SDS011;4736;52.508;13.422;2022-08-19T10:40:02;20.70;;;19.10;;
9392;SDS011;4736;52.508;13.422;2022-08-19T10:43:08;20.87;;;19.03;;
9392;SDS011;4736;52.508;13.422;2022-08-19T10:46:12;21.87;;;20.10;;
9392;SDS011;4736;52.508;13.422;2022-08-19T10:49:17;20.23;;;18.83;;
9392;SDS011;4736;52.508;13.422;2022-08-19T10:52:20;20.93;;;19.20;;
9392;SDS011;4736;52.508;13.422;2022-08-19T10:55:39;20.73;;;19.13;;
9392;SDS011;4736;52.508;13.422;2022-08-19T10:59:05;20.67;;;19.07;;
9392;SDS011;4736;52.508;13.422;2022-08-19T11:02:10;19.23;;;17.77;;
9392;SDS011;4736;52.508;13.422;2022-08-19T11:05:14;20.63;;;19.13;;
9392;SDS011;4736;52.508;13.422;2022-08-19T11:08:19;22.77;;;20.83;;
9392;SDS011;4736;52.508;13.422;2022-08-19T11:11:24;21.07;;;19.40;;
9392;SDS011;4736;52.508;13.422;2022-08-19T11:14:28;21.47;;;19.70;;
9392;SDS011;4736;52.508;13.422;2022-08-19T11:17:34;20.40;;;18.80;;
9392;SDS011;4736;52.508;13.422;2022-08-19T11:20:41;19.80;;;18.17;;
9392;SDS011;4736;52.508;13.422;2022-08-19T11:23:45;23.03;;;21.00;;
9392;SDS011;4736;52.508;13.422;2022-08-19T11:26:50;21.67;;;19.90;;
9392;SDS011;4736;52.508;13.422;2022-08-19T11:29:59;21.00;;;19.13;;
9392;SDS011;4736;52.508;13.422;2022-08-19T11:33:10;19.87;;;17.90;;
9392;SDS011;4736;52.508;13.422;2022-08-19T11:36:13;21.20;;;19.17;;
9392;SDS011;4736;52.508;13.422;2022-08-19T11:39:20;18.97;;;17.40;;
9392;SDS011;4736;52.508;13.422;2022-08-19T11:42:23;20.53;;;18.73;;
9392;SDS011;4736;52.508;13.422;2022-08-19T11:45:45;19.90;;;18.20;;
9392;SDS011;4736;52.508;13.422;2022-08-19T11:48:49;20.13;;;18.43;;
9392;SDS011;4736;52.508;13.422;2022-08-19T11:51:52;20.63;;;18.93;;
9392;SDS011;4736;52.508;13.422;2022-08-19T11:54:55;18.50;;;17.00;;
9392;SDS011;4736;52.508;13.422;2022-08-19T11:57:58;18.43;;;16.80;;
9392;SDS011;4736;52.508;13.422;2022-08-19T12:01:07;18.43;;;17.00;;
9392;SDS011;4736;52.508;13.422;2022-08-19T12:04:12;16.10;;;14.80;;
9392;SDS011;4736;52.508;13.422;2022-08-19T12:07:16;15.77;;;14.57;;
9392;SDS011;4736;52.508;13.422;2022-08-19T12:10:19;17.07;;;15.57;;
9392;SDS011;4736;52.508;13.422;2022-08-19T12:13:26;15.53;;;14.43;;
9392;SDS011;4736;52.508;13.422;2022-08-19T12:16:31;15.00;;;14.00;;
9392;SDS011;4736;52.508;13.422;2022-08-19T12:19:35;16.90;;;15.60;;
9392;SDS011;4736;52.508;13.422;2022-08-19T12:22:40;15.17;;;14.13;;
9392;SDS011;4736;52.508;13.422;2022-08-19T12:25:44;15.03;;;13.83;;
9392;SDS011;4736;52.508;13.422;2022-08-19T12:28:51;15.93;;;14.73;;
9392;SDS011;4736;52.508;13.422;2022-08-19T12:31:55;15.20;;;14.20;;
9392;SDS011;4736;52.508;13.422;2022-08-19T12:35:05;15.37;;;14.10;;
9392;SDS011;4736;52.508;13.422;2022-08-19T12:38:10;14.93;;;13.50;;
9392;SDS011;4736;52.508;13.422;2022-08-19T12:41:14;13.70;;;12.77;;
9392;SDS011;4736;52.508;13.422;2022-08-19T12:44:19;14.40;;;13.40;;
9392;SDS011;4736;52.508;13.422;2022-08-19T12:47:34;12.90;;;11.87;;
9392;SDS011;4736;52.508;13.422;2022-08-19T12:50:43;13.30;;;12.40;;
9392;SDS011;4736;52.508;13.422;2022-08-19T12:53:50;12.50;;;11.80;;
9392;SDS011;4736;52.508;13.422;2022-08-19T12:56:57;13.73;;;12.73;;
9392;SDS011;4736;52.508;13.422;2022-08-19T13:00:04;13.50;;;12.60;;
9392;SDS011;4736;52.508;13.422;2022-08-19T13:03:13;13.63;;;12.60;;
9392;SDS011;4736;52.508;13.422;2022-08-19T13:06:19;13.70;;;12.67;;
9392;SDS011;4736;52.508;13.422;2022-08-19T13:09:22;14.63;;;13.47;;
9392;SDS011;4736;52.508;13.422;2022-08-19T13:12:25;14.00;;;13.00;;
9392;SDS011;4736;52.508;13.422;2022-08-19T13:15:28;13.83;;;12.63;;
9392;SDS011;4736;52.508;13.422;2022-08-19T13:18:33;14.37;;;13.27;;
9392;SDS011;4736;52.508;13.422;2022-08-19T13:21:36;15.43;;;14.03;;
9392;SDS011;4736;52.508;13.422;2022-08-19T13:24:39;14.97;;;13.83;;
9392;SDS011;4736;52.508;13.422;2022-08-19T13:27:47;15.13;;;14.10;;
9392;SDS011;4736;52.508;13.422;2022-08-19T13:30:52;15.07;;;13.77;;
9392;SDS011;4736;52.508;13.422;2022-08-19T13:34:14;15.47;;;14.33;;
9392;SDS011;4736;52.508;13.422;2022-08-19T13:37:18;14.90;;;13.67;;
9392;SDS011;4736;52.508;13.422;2022-08-19T13:40:42;15.10;;;14.00;;
9392;SDS011;4736;52.508;13.422;2022-08-19T13:43:51;15.00;;;13.90;;
9392;SDS011;4736;52.508;13.422;2022-08-19T13:46:54;15.70;;;14.70;;
9392;SDS011;4736;52.508;13.422;2022-08-19T13:50:03;15.37;;;14.27;;
9392;SDS011;4736;52.508;13.422;2022-08-19T13:53:07;15.33;;;14.03;;
9392;SDS011;4736;52.508;13.422;2022-08-19T13:56:12;15.60;;;14.30;;
9392;SDS011;4736;52.508;13.422;2022-08-19T13:59:17;14.67;;;13.67;;
9392;SDS011;4736;52.508;13.422;2022-08-19T14:02:20;14.57;;;13.67;;
9392;SDS011;4736;52.508;13.422;2022-08-19T14:05:25;15.30;;;14.20;;
9392;SDS011;4736;52.508;13.422;2022-08-19T14:08:30;15.77;;;14.57;;
9392;SDS011;4736;52.508;13.422;2022-08-19T14:11:33;15.03;;;13.93;;
9392;SDS011;4736;52.508;13.422;2022-08-19T14:14:36;17.13;;;15.63;;
9392;SDS011;4736;52.508;13.422;2022-08-19T14:17:40;16.10;;;14.90;;
9392;SDS011;4736;52.508;13.422;2022-08-19T14:20:46;16.20;;;15.00;;
9392;SDS011;4736;52.508;13.422;2022-08-19T14:23:49;16.43;;;15.27;;
9392;SDS011;4736;52.508;13.422;2022-08-19T14:26:52;16.57;;;15.37;;
9392;SDS011;4736;52.508;13.422;2022-08-19T14:29:55;16.37;;;15.27;;
9392;SDS011;4736;52.508;13.422;2022-08-19T14:32:59;15.30;;;14.27;;
9392;SDS011;4736;52.508;13.422;2022-08-19T14:36:05;15.17;;;14.17;;
9392;SDS011;4736;52.508;13.422;2022-08-19T14:39:08;15.97;;;14.93;;
9392;SDS011;4736;52.508;13.422;2022-08-19T14:42:11;14.33;;;13.17;;
9392;SDS011;4736;52.508;13.422;2022-08-19T14:45:15;13.63;;;12.63;;
9392;SDS011;4736;52.508;13.422;2022-08-19T14:48:21;15.70;;;14.60;;
9392;SDS011;4736;52.508;13.422;2022-08-19T14:51:31;16.03;;;14.80;;
9392;SDS011;4736;52.508;13.422;2022-08-19T14:54:34;14.43;;;13.50;;
9392;SDS011;4736;52.508;13.422;2022-08-19T14:57:37;15.90;;;14.80;;
9392;SDS011;4736;52.508;13.422;2022-08-19T15:00:45;13.90;;;12.80;;
9392;SDS011;4736;52.508;13.422;2022-08-19T15:03:49;15.47;;;14.27;;
9392;SDS011;4736;52.508;13.422;2022-08-19T15:06:55;15.13;;;13.70;;
9392;SDS011;4736;52.508;13.422;2022-08-19T15:09:58;15.90;;;14.60;;
9392;SDS011;4736;52.508;13.422;2022-08-19T15:13:01;14.80;;;13.37;;
9392;SDS011;4736;52.508;13.422;2022-08-19T15:16:04;12.90;;;12.00;;
9392;SDS011;4736;52.508;13.422;2022-08-19T15:19:18;13.47;;;12.43;;
9392;SDS011;4736;52.508;13.422;2022-08-19T15:22:22;12.33;;;11.57;;
9392;SDS011;4736;52.508;13.422;2022-08-19T15:25:25;13.33;;;12.43;;
9392;SDS011;4736;52.508;13.422;2022-08-19T15:28:29;13.00;;;12.20;;
9392;SDS011;4736;52.508;13.422;2022-08-19T15:31:38;13.00;;;12.20;;
9392;SDS011;4736;52.508;13.422;2022-08-19T15:34:41;13.77;;;12.63;;
9392;SDS011;4736;52.508;13.422;2022-08-19T15:37:47;13.80;;;12.70;;
9392;SDS011;4736;52.508;13.422;2022-08-19T15:40:52;12.43;;;11.67;;
9392;SDS011;4736;52.508;13.422;2022-08-19T15:44:16;14.47;;;13.37;;
9392;SDS011;4736;52.508;13.422;2022-08-19T15:47:23;14.10;;;13.07;;
9392;SDS011;4736;52.508;13.422;2022-08-19T15:50:28;13.23;;;12.37;;
9392;SDS011;4736;52.508;13.422;2022-08-19T15:53:34;12.50;;;11.80;;
9392;SDS011;4736;52.508;13.422;2022-08-19T15:56:37;12.47;;;11.73;;
9392;SDS011;4736;52.508;13.422;2022-08-19T15:59:58;12.57;;;11.77;;
9392;SDS011;4736;52.508;13.422;2022-08-19T16:03:19;12.43;;;11.63;;
9392;SDS011;4736;52.508;13.422;2022-08-19T16:06:42;13.13;;;12.23;;
9392;SDS011;4736;52.508;13.422;2022-08-19T16:09:48;11.10;;;10.50;;
9392;SDS011;4736;52.508;13.422;2022-08-19T16:12:51;11.60;;;10.90;;
9392;SDS011;4736;52.508;13.422;2022-08-19T16:15:56;13.43;;;12.43;;
9392;SDS011;4736;52.508;13.422;2022-08-19T16:18:59;13.40;;;12.50;;
9392;SDS011;4736;52.508;13.422;2022-08-19T16:22:10;15.00;;;13.90;;
9392;SDS011;4736;52.508;13.422;2022-08-19T16:25:15;13.97;;;13.07;;
9392;SDS011;4736;52.508;13.422;2022-08-19T16:28:18;15.03;;;13.83;;
9392;SDS011;4736;52.508;13.422;2022-08-19T16:31:23;15.50;;;14.50;;
9392;SDS011;4736;52.508;13.422;2022-08-19T16:34:27;15.27;;;14.07;;
9392;SDS011;4736;52.508;13.422;2022-08-19T16:37:31;13.83;;;12.93;;
9392;SDS011;4736;52.508;13.422;2022-08-19T16:40:35;15.57;;;14.53;;
9392;SDS011;4736;52.508;13.422;2022-08-19T16:43:39;14.57;;;13.57;;
9392;SDS011;4736;52.508;13.422;2022-08-19T16:46:42;15.13;;;14.00;;
9392;SDS011;4736;52.508;13.422;2022-08-19T16:49:59;14.00;;;13.10;;
9392;SDS011;4736;52.508;13.422;2022-08-19T16:53:05;14.27;;;13.27;;
9392;SDS011;4736;52.508;13.422;2022-08-19T16:56:09;14.53;;;13.53;;
9392;SDS011;4736;52.508;13.422;2022-08-19T16:59:13;15.10;;;14.00;;
9392;SDS011;4736;52.508;13.422;2022-08-19T17:02:16;14.53;;;13.60;;
9392;SDS011;4736;52.508;13.422;2022-08-19T17:05:20;13.97;;;12.90;;
9392;SDS011;4736;52.508;13.422;2022-08-19T17:08:24;15.00;;;13.97;;
9392;SDS011;4736;52.508;13.422;2022-08-19T17:11:29;14.50;;;13.43;;
9392;SDS011;4736;52.508;13.422;2022-08-19T17:14:33;14.07;;;13.10;;
9392;SDS011;4736;52.508;13.422;2022-08-19T17:17:37;14.37;;;13.43;;
9392;SDS011;4736;52.508;13.422;2022-08-19T17:20:40;14.07;;;13.27;;
9392;SDS011;4736;52.508;13.422;2022-08-19T17:23:47;14.97;;;13.87;;
9392;SDS011;4736;52.508;13.422;2022-08-19T17:26:51;14.47;;;13.37;;
9392;SDS011;4736;52.508;13.422;2022-08-19T17:29:54;14.03;;;13.13;;
9392;SDS011;4736;52.508;13.422;2022-08-19T17:33:09;14.40;;;13.50;;
9392;SDS011;4736;52.508;13.422;2022-08-19T17:36:12;14.20;;;13.20;;
9392;SDS011;4736;52.508;13.422;2022-08-19T17:39:15;12.07;;;11.17;;
9392;SDS011;4736;52.508;13.422;2022-08-19T17:42:21;13.20;;;12.20;;
9392;SDS011;4736;52.508;13.422;2022-08-19T17:45:24;12.10;;;11.40;;
9392;SDS011;4736;52.508;13.422;2022-08-19T17:48:27;12.00;;;11.20;;
9392;SDS011;4736;52.508;13.422;2022-08-19T17:51:37;12.47;;;11.57;;
9392;SDS011;4736;52.508;13.422;2022-08-19T17:54:55;10.53;;;9.93;;
9392;SDS011;4736;52.508;13.422;2022-08-19T17:57:59;10.27;;;9.70;;
9392;SDS011;4736;52.508;13.422;2022-08-19T18:01:09;9.73;;;9.23;;
9392;SDS011;4736;52.508;13.422;2022-08-19T18:04:13;9.73;;;9.10;;
9392;SDS011;4736;52.508;13.422;2022-08-19T18:07:17;11.30;;;10.30;;
9392;SDS011;4736;52.508;13.422;2022-08-19T18:10:22;9.63;;;9.03;;
9392;SDS011;4736;52.508;13.422;2022-08-19T18:13:36;9.30;;;8.80;;
9392;SDS011;4736;52.508;13.422;2022-08-19T18:16:40;9.60;;;9.07;;
9392;SDS011;4736;52.508;13.422;2022-08-19T18:19:45;9.77;;;9.27;;
9392;SDS011;4736;52.508;13.422;2022-08-19T18:22:49;10.13;;;9.53;;
9392;SDS011;4736;52.508;13.422;2022-08-19T18:25:52;10.00;;;9.37;;
9392;SDS011;4736;52.508;13.422;2022-08-19T18:28:56;10.07;;;9.30;;